sensor_id;sensor_type;location;lat;lon;timestamp;temperature;humidity
66568;DHT22;53422;49.296;6.900;2023-05-10T00:02:24;15.90;99.90
66568;DHT22;53422;49.296;6.900;2023-05-10T00:04:50;15.90;99.90
66568;DHT22;53422;49.296;6.900;2023-05-10T00:07:15;15.90;99.90
66568;DHT22;53422;49.296;6.900;2023-05-10T00:09:43;15.90;99.90
66568;DHT22;53422;49.296;6.900;2023-05-10T00:12:08;15.90;99.90
66568;DHT22;53422;49.296;6.900;2023-05-10T00:14:34;15.70;99.90
66568;DHT22;53422;49.296;6.900;2023-05-10T00:17:00;15.80;99.90
66568;DHT22;53422;49.296;6.900;2023-05-10T00:19:26;15.80;99.90
66568;DHT22;53422;49.296;6.900;2023-05-10T00:21:51;15.80;99.90
66568;DHT22;53422;49.296;6.900;2023-05-10T00:24:17;15.80;99.90
66568;DHT22;53422;49.296;6.900;2023-05-10T00:26:43;15.80;99.90
66568;DHT22;53422;49.296;6.900;2023-05-10T00:29:08;15.80;99.90
66568;DHT22;53422;49.296;6.900;2023-05-10T00:31:34;15.80;99.90
66568;DHT22;53422;49.296;6.900;2023-05-10T00:34:00;15.80;99.90
66568;DHT22;53422;49.296;6.900;2023-05-10T00:36:25;15.80;99.90
66568;DHT22;53422;49.296;6.900;2023-05-10T00:38:51;15.80;99.90
66568;DHT22;53422;49.296;6.900;2023-05-10T00:41:17;15.80;99.90
66568;DHT22;53422;49.296;6.900;2023-05-10T00:43:42;15.80;99.90
66568;DHT22;53422;49.296;6.900;2023-05-10T00:46:08;15.80;99.90
66568;DHT22;53422;49.296;6.900;2023-05-10T00:48:34;15.80;99.90
66568;DHT22;53422;49.296;6.900;2023-05-10T00:51:01;15.70;99.90
66568;DHT22;53422;49.296;6.900;2023-05-10T00:53:27;15.80;99.90
66568;DHT22;53422;49.296;6.900;2023-05-10T00:55:53;15.80;99.90
66568;DHT22;53422;49.296;6.900;2023-05-10T00:58:18;15.80;99.90
66568;DHT22;53422;49.296;6.900;2023-05-10T01:00:46;15.70;99.90
66568;DHT22;53422;49.296;6.900;2023-05-10T01:03:13;15.70;99.90
66568;DHT22;53422;49.296;6.900;2023-05-10T01:05:39;15.70;99.90
66568;DHT22;53422;49.296;6.900;2023-05-10T01:08:05;15.70;99.90
66568;DHT22;53422;49.296;6.900;2023-05-10T01:10:31;15.70;99.90
66568;DHT22;53422;49.296;6.900;2023-05-10T01:12:59;15.70;99.90
66568;DHT22;53422;49.296;6.900;2023-05-10T01:15:25;15.70;99.90
66568;DHT22;53422;49.296;6.900;2023-05-10T01:17:50;15.60;99.90
66568;DHT22;53422;49.296;6.900;2023-05-10T01:20:17;15.50;99.90
66568;DHT22;53422;49.296;6.900;2023-05-10T01:25:54;15.60;99.90
66568;DHT22;53422;49.296;6.900;2023-05-10T01:34:07;15.60;99.90
66568;DHT22;53422;49.296;6.900;2023-05-10T01:36:42;15.50;99.90
66568;DHT22;53422;49.296;6.900;2023-05-10T01:39:27;15.50;99.90
66568;DHT22;53422;49.296;6.900;2023-05-10T01:42:01;15.50;99.90
66568;DHT22;53422;49.296;6.900;2023-05-10T01:47:17;15.50;99.90
66568;DHT22;53422;49.296;6.900;2023-05-10T01:49:50;15.50;99.90
66568;DHT22;53422;49.296;6.900;2023-05-10T01:52:18;15.50;99.90
66568;DHT22;53422;49.296;6.900;2023-05-10T01:55:00;15.50;99.90
66568;DHT22;53422;49.296;6.900;2023-05-10T01:57:35;15.50;99.90
66568;DHT22;53422;49.296;6.900;2023-05-10T02:00:02;15.50;99.90
66568;DHT22;53422;49.296;6.900;2023-05-10T02:02:30;15.50;99.90
66568;DHT22;53422;49.296;6.900;2023-05-10T02:04:58;15.50;99.90
66568;DHT22;53422;49.296;6.900;2023-05-10T02:07:24;15.50;99.90
66568;DHT22;53422;49.296;6.900;2023-05-10T02:09:52;15.50;99.90
66568;DHT22;53422;49.296;6.900;2023-05-10T02:12:18;15.50;99.90
66568;DHT22;53422;49.296;6.900;2023-05-10T02:14:46;15.50;99.90
66568;DHT22;53422;49.296;6.900;2023-05-10T02:17:13;15.50;99.90
66568;DHT22;53422;49.296;6.900;2023-05-10T02:19:41;15.50;99.90
66568;DHT22;53422;49.296;6.900;2023-05-10T02:22:07;15.50;99.90
66568;DHT22;53422;49.296;6.900;2023-05-10T02:24:35;15.40;99.90
66568;DHT22;53422;49.296;6.900;2023-05-10T02:27:03;15.40;99.90
66568;DHT22;53422;49.296;6.900;2023-05-10T02:29:29;15.40;99.90
66568;DHT22;53422;49.296;6.900;2023-05-10T02:31:57;15.40;99.90
66568;DHT22;53422;49.296;6.900;2023-05-10T02:34:25;15.40;99.90
66568;DHT22;53422;49.296;6.900;2023-05-10T02:36:52;15.40;99.90
66568;DHT22;53422;49.296;6.900;2023-05-10T02:39:22;15.40;99.90
66568;DHT22;53422;49.296;6.900;2023-05-10T02:41:49;15.40;99.90
66568;DHT22;53422;49.296;6.900;2023-05-10T02:44:18;15.40;99.90
66568;DHT22;53422;49.296;6.900;2023-05-10T02:46:44;15.40;99.90
66568;DHT22;53422;49.296;6.900;2023-05-10T02:49:10;15.40;99.90
66568;DHT22;53422;49.296;6.900;2023-05-10T02:51:39;15.40;99.90
66568;DHT22;53422;49.296;6.900;2023-05-10T02:54:13;15.40;99.90
66568;DHT22;53422;49.296;6.900;2023-05-10T02:56:46;15.40;99.90
66568;DHT22;53422;49.296;6.900;2023-05-10T02:59:12;15.40;99.90
66568;DHT22;53422;49.296;6.900;2023-05-10T03:01:38;15.40;99.90
66568;DHT22;53422;49.296;6.900;2023-05-10T03:04:04;15.40;99.90
66568;DHT22;53422;49.296;6.900;2023-05-10T03:06:29;15.40;99.90
66568;DHT22;53422;49.296;6.900;2023-05-10T03:08:55;15.40;99.90
66568;DHT22;53422;49.296;6.900;2023-05-10T03:11:32;15.30;99.90
66568;DHT22;53422;49.296;6.900;2023-05-10T03:16:46;15.30;99.90
66568;DHT22;53422;49.296;6.900;2023-05-10T03:19:30;15.30;99.90
66568;DHT22;53422;49.296;6.900;2023-05-10T03:21:59;15.30;99.90
66568;DHT22;53422;49.296;6.900;2023-05-10T03:24:28;15.30;99.90
66568;DHT22;53422;49.296;6.900;2023-05-10T03:26:56;15.30;99.90
66568;DHT22;53422;49.296;6.900;2023-05-10T03:29:25;15.30;99.90
66568;DHT22;53422;49.296;6.900;2023-05-10T03:31:51;15.30;99.90
66568;DHT22;53422;49.296;6.900;2023-05-10T03:34:17;15.30;99.90
66568;DHT22;53422;49.296;6.900;2023-05-10T03:36:48;15.30;99.90
66568;DHT22;53422;49.296;6.900;2023-05-10T03:39:13;15.30;99.90
66568;DHT22;53422;49.296;6.900;2023-05-10T03:41:39;15.30;99.90
66568;DHT22;53422;49.296;6.900;2023-05-10T03:44:05;15.30;99.90
66568;DHT22;53422;49.296;6.900;2023-05-10T03:46:30;15.30;99.90
66568;DHT22;53422;49.296;6.900;2023-05-10T03:48:56;15.30;99.90
66568;DHT22;53422;49.296;6.900;2023-05-10T03:51:22;15.20;99.90
66568;DHT22;53422;49.296;6.900;2023-05-10T03:53:47;15.10;99.90
66568;DHT22;53422;49.296;6.900;2023-05-10T03:56:13;15.20;99.90
66568;DHT22;53422;49.296;6.900;2023-05-10T03:58:39;15.20;99.90
66568;DHT22;53422;49.296;6.900;2023-05-10T04:01:04;15.20;99.90
66568;DHT22;53422;49.296;6.900;2023-05-10T04:03:30;15.20;99.90
66568;DHT22;53422;49.296;6.900;2023-05-10T04:06:02;15.10;99.90
66568;DHT22;53422;49.296;6.900;2023-05-10T04:08:28;15.10;99.90
66568;DHT22;53422;49.296;6.900;2023-05-10T04:10:54;15.10;99.90
66568;DHT22;53422;49.296;6.900;2023-05-10T04:13:19;15.10;99.90
66568;DHT22;53422;49.296;6.900;2023-05-10T04:15:46;15.10;99.90
66568;DHT22;53422;49.296;6.900;2023-05-10T04:18:12;15.00;99.90
66568;DHT22;53422;49.296;6.900;2023-05-10T04:20:37;15.00;99.90
66568;DHT22;53422;49.296;6.900;2023-05-10T04:23:03;15.00;99.90
66568;DHT22;53422;49.296;6.900;2023-05-10T04:25:29;15.00;99.90
66568;DHT22;53422;49.296;6.900;2023-05-10T04:27:54;15.00;99.90
66568;DHT22;53422;49.296;6.900;2023-05-10T04:30:20;15.00;99.90
66568;DHT22;53422;49.296;6.900;2023-05-10T04:32:45;15.00;99.90
66568;DHT22;53422;49.296;6.900;2023-05-10T04:35:11;15.00;99.90
66568;DHT22;53422;49.296;6.900;2023-05-10T04:37:37;15.00;99.90
66568;DHT22;53422;49.296;6.900;2023-05-10T04:40:03;15.00;99.90
66568;DHT22;53422;49.296;6.900;2023-05-10T04:42:29;15.00;99.90
66568;DHT22;53422;49.296;6.900;2023-05-10T04:44:54;15.00;99.90
66568;DHT22;53422;49.296;6.900;2023-05-10T04:47:20;15.00;99.90
66568;DHT22;53422;49.296;6.900;2023-05-10T04:49:46;15.00;99.90
66568;DHT22;53422;49.296;6.900;2023-05-10T04:52:11;15.00;99.90
66568;DHT22;53422;49.296;6.900;2023-05-10T04:54:37;15.00;99.90
66568;DHT22;53422;49.296;6.900;2023-05-10T04:57:02;15.00;99.90
66568;DHT22;53422;49.296;6.900;2023-05-10T04:59:28;15.00;99.90
66568;DHT22;53422;49.296;6.900;2023-05-10T05:01:54;15.00;99.90
66568;DHT22;53422;49.296;6.900;2023-05-10T05:04:19;14.90;99.90
66568;DHT22;53422;49.296;6.900;2023-05-10T05:06:45;14.90;99.90
66568;DHT22;53422;49.296;6.900;2023-05-10T05:09:10;14.90;99.90
66568;DHT22;53422;49.296;6.900;2023-05-10T05:11:36;14.90;99.90
66568;DHT22;53422;49.296;6.900;2023-05-10T05:14:02;15.00;99.90
66568;DHT22;53422;49.296;6.900;2023-05-10T05:16:30;14.90;99.90
66568;DHT22;53422;49.296;6.900;2023-05-10T05:18:56;14.90;99.90
66568;DHT22;53422;49.296;6.900;2023-05-10T05:21:21;14.90;99.90
66568;DHT22;53422;49.296;6.900;2023-05-10T05:23:47;14.90;99.90
66568;DHT22;53422;49.296;6.900;2023-05-10T05:26:13;14.90;99.90
66568;DHT22;53422;49.296;6.900;2023-05-10T05:28:40;14.90;99.90
66568;DHT22;53422;49.296;6.900;2023-05-10T05:31:06;14.90;99.90
66568;DHT22;53422;49.296;6.900;2023-05-10T05:33:33;14.90;99.90
66568;DHT22;53422;49.296;6.900;2023-05-10T05:36:01;14.70;99.90
66568;DHT22;53422;49.296;6.900;2023-05-10T05:38:26;14.90;99.90
66568;DHT22;53422;49.296;6.900;2023-05-10T05:40:52;14.90;99.90
66568;DHT22;53422;49.296;6.900;2023-05-10T05:43:18;14.90;99.90
66568;DHT22;53422;49.296;6.900;2023-05-10T05:45:43;15.00;99.90
66568;DHT22;53422;49.296;6.900;2023-05-10T05:48:09;14.90;99.90
66568;DHT22;53422;49.296;6.900;2023-05-10T05:50:35;14.90;99.90
66568;DHT22;53422;49.296;6.900;2023-05-10T05:53:00;14.90;99.90
66568;DHT22;53422;49.296;6.900;2023-05-10T05:55:26;15.00;99.90
66568;DHT22;53422;49.296;6.900;2023-05-10T05:57:52;15.00;99.90
66568;DHT22;53422;49.296;6.900;2023-05-10T06:00:17;15.00;99.90
66568;DHT22;53422;49.296;6.900;2023-05-10T06:02:43;14.90;99.90
66568;DHT22;53422;49.296;6.900;2023-05-10T06:05:09;14.90;99.90
66568;DHT22;53422;49.296;6.900;2023-05-10T06:07:34;14.80;99.90
66568;DHT22;53422;49.296;6.900;2023-05-10T06:10:00;14.80;99.90
66568;DHT22;53422;49.296;6.900;2023-05-10T06:12:26;14.90;99.90
66568;DHT22;53422;49.296;6.900;2023-05-10T06:14:52;14.90;99.90
66568;DHT22;53422;49.296;6.900;2023-05-10T06:17:17;14.80;99.90
66568;DHT22;53422;49.296;6.900;2023-05-10T06:19:43;14.90;99.90
66568;DHT22;53422;49.296;6.900;2023-05-10T06:22:09;14.90;99.90
66568;DHT22;53422;49.296;6.900;2023-05-10T06:24:34;14.90;99.90
66568;DHT22;53422;49.296;6.900;2023-05-10T06:27:00;14.80;99.90
66568;DHT22;53422;49.296;6.900;2023-05-10T06:29:26;14.80;99.90
66568;DHT22;53422;49.296;6.900;2023-05-10T06:31:51;14.90;99.90
66568;DHT22;53422;49.296;6.900;2023-05-10T06:34:18;14.90;99.90
66568;DHT22;53422;49.296;6.900;2023-05-10T06:36:43;15.00;99.90
66568;DHT22;53422;49.296;6.900;2023-05-10T06:39:09;15.00;99.90
66568;DHT22;53422;49.296;6.900;2023-05-10T06:41:36;15.00;99.90
66568;DHT22;53422;49.296;6.900;2023-05-10T06:44:02;15.00;99.90
66568;DHT22;53422;49.296;6.900;2023-05-10T06:46:29;14.90;99.90
66568;DHT22;53422;49.296;6.900;2023-05-10T06:48:54;14.80;99.90
66568;DHT22;53422;49.296;6.900;2023-05-10T06:51:20;14.90;99.90
66568;DHT22;53422;49.296;6.900;2023-05-10T06:53:46;14.90;99.90
66568;DHT22;53422;49.296;6.900;2023-05-10T06:56:12;14.90;99.90
66568;DHT22;53422;49.296;6.900;2023-05-10T06:58:38;14.90;99.90
66568;DHT22;53422;49.296;6.900;2023-05-10T07:01:04;15.00;99.90
66568;DHT22;53422;49.296;6.900;2023-05-10T07:03:31;14.90;99.90
66568;DHT22;53422;49.296;6.900;2023-05-10T07:06:03;14.90;99.90
66568;DHT22;53422;49.296;6.900;2023-05-10T07:08:30;14.90;99.90
66568;DHT22;53422;49.296;6.900;2023-05-10T07:11:04;14.90;99.90
66568;DHT22;53422;49.296;6.900;2023-05-10T07:13:33;15.00;99.90
66568;DHT22;53422;49.296;6.900;2023-05-10T07:16:00;15.00;99.90
66568;DHT22;53422;49.296;6.900;2023-05-10T07:18:26;14.90;99.90
66568;DHT22;53422;49.296;6.900;2023-05-10T07:20:52;15.00;99.90
66568;DHT22;53422;49.296;6.900;2023-05-10T07:23:18;15.00;99.90
66568;DHT22;53422;49.296;6.900;2023-05-10T07:25:48;15.00;99.90
66568;DHT22;53422;49.296;6.900;2023-05-10T07:28:15;15.00;99.90
66568;DHT22;53422;49.296;6.900;2023-05-10T07:30:41;15.00;99.90
66568;DHT22;53422;49.296;6.900;2023-05-10T07:33:08;15.00;99.90
66568;DHT22;53422;49.296;6.900;2023-05-10T07:35:35;15.10;99.90
66568;DHT22;53422;49.296;6.900;2023-05-10T07:38:01;15.10;99.90
66568;DHT22;53422;49.296;6.900;2023-05-10T07:40:27;15.20;99.90
66568;DHT22;53422;49.296;6.900;2023-05-10T07:42:53;15.20;99.90
66568;DHT22;53422;49.296;6.900;2023-05-10T07:45:19;15.20;99.90
66568;DHT22;53422;49.296;6.900;2023-05-10T07:47:44;15.30;99.90
66568;DHT22;53422;49.296;6.900;2023-05-10T07:50:10;15.30;99.90
66568;DHT22;53422;49.296;6.900;2023-05-10T07:52:36;15.30;99.90
66568;DHT22;53422;49.296;6.900;2023-05-10T07:55:01;15.20;99.90
66568;DHT22;53422;49.296;6.900;2023-05-10T07:57:27;15.30;99.90
66568;DHT22;53422;49.296;6.900;2023-05-10T07:59:53;15.30;99.90
66568;DHT22;53422;49.296;6.900;2023-05-10T08:02:18;15.40;99.90
66568;DHT22;53422;49.296;6.900;2023-05-10T08:04:44;15.40;99.90
66568;DHT22;53422;49.296;6.900;2023-05-10T08:07:10;15.40;99.90
66568;DHT22;53422;49.296;6.900;2023-05-10T08:09:36;15.40;99.90
66568;DHT22;53422;49.296;6.900;2023-05-10T08:12:01;15.40;99.90
66568;DHT22;53422;49.296;6.900;2023-05-10T08:14:30;15.40;99.90
66568;DHT22;53422;49.296;6.900;2023-05-10T08:16:56;15.40;99.90
66568;DHT22;53422;49.296;6.900;2023-05-10T08:19:22;15.50;99.90
66568;DHT22;53422;49.296;6.900;2023-05-10T08:21:48;15.50;99.90
66568;DHT22;53422;49.296;6.900;2023-05-10T08:24:14;15.60;99.90
66568;DHT22;53422;49.296;6.900;2023-05-10T08:26:39;15.70;99.90
66568;DHT22;53422;49.296;6.900;2023-05-10T08:29:05;15.70;99.90
66568;DHT22;53422;49.296;6.900;2023-05-10T08:31:31;15.80;99.90
66568;DHT22;53422;49.296;6.900;2023-05-10T08:33:56;15.90;99.90
66568;DHT22;53422;49.296;6.900;2023-05-10T08:36:22;15.90;99.90
66568;DHT22;53422;49.296;6.900;2023-05-10T08:38:53;16.00;99.90
66568;DHT22;53422;49.296;6.900;2023-05-10T08:41:23;16.00;99.90
66568;DHT22;53422;49.296;6.900;2023-05-10T08:43:52;16.00;99.90
66568;DHT22;53422;49.296;6.900;2023-05-10T08:46:20;16.00;99.90
66568;DHT22;53422;49.296;6.900;2023-05-10T08:48:47;16.00;99.90
66568;DHT22;53422;49.296;6.900;2023-05-10T08:51:15;16.00;99.90
66568;DHT22;53422;49.296;6.900;2023-05-10T08:53:44;16.00;99.90
66568;DHT22;53422;49.296;6.900;2023-05-10T08:56:09;15.80;99.90
66568;DHT22;53422;49.296;6.900;2023-05-10T08:58:36;15.60;99.90
66568;DHT22;53422;49.296;6.900;2023-05-10T09:01:02;15.50;99.90
66568;DHT22;53422;49.296;6.900;2023-05-10T09:03:28;15.30;99.90
66568;DHT22;53422;49.296;6.900;2023-05-10T09:05:55;15.30;99.90
66568;DHT22;53422;49.296;6.900;2023-05-10T09:08:24;15.20;99.90
66568;DHT22;53422;49.296;6.900;2023-05-10T09:10:54;15.20;99.90
66568;DHT22;53422;49.296;6.900;2023-05-10T09:13:21;15.30;99.90
66568;DHT22;53422;49.296;6.900;2023-05-10T09:15:47;15.20;99.90
66568;DHT22;53422;49.296;6.900;2023-05-10T09:18:13;15.20;99.90
66568;DHT22;53422;49.296;6.900;2023-05-10T09:20:40;15.40;99.90
66568;DHT22;53422;49.296;6.900;2023-05-10T09:23:06;15.70;99.90
66568;DHT22;53422;49.296;6.900;2023-05-10T09:25:32;16.00;99.90
66568;DHT22;53422;49.296;6.900;2023-05-10T09:27:59;16.10;99.90
66568;DHT22;53422;49.296;6.900;2023-05-10T09:30:29;16.30;99.90
66568;DHT22;53422;49.296;6.900;2023-05-10T09:32:57;16.30;99.90
66568;DHT22;53422;49.296;6.900;2023-05-10T09:35:25;16.40;99.90
66568;DHT22;53422;49.296;6.900;2023-05-10T09:37:53;16.50;99.90
66568;DHT22;53422;49.296;6.900;2023-05-10T09:40:25;16.50;99.90
66568;DHT22;53422;49.296;6.900;2023-05-10T09:45:20;16.60;99.90
66568;DHT22;53422;49.296;6.900;2023-05-10T09:47:46;16.80;99.90
66568;DHT22;53422;49.296;6.900;2023-05-10T09:50:12;16.80;99.90
66568;DHT22;53422;49.296;6.900;2023-05-10T09:55:15;16.90;99.90
66568;DHT22;53422;49.296;6.900;2023-05-10T09:57:41;17.00;99.90
66568;DHT22;53422;49.296;6.900;2023-05-10T10:00:07;17.10;99.90
66568;DHT22;53422;49.296;6.900;2023-05-10T10:02:35;17.10;99.90
66568;DHT22;53422;49.296;6.900;2023-05-10T10:05:02;17.10;99.90
66568;DHT22;53422;49.296;6.900;2023-05-10T10:07:31;17.20;99.90
66568;DHT22;53422;49.296;6.900;2023-05-10T10:09:58;17.20;99.90
66568;DHT22;53422;49.296;6.900;2023-05-10T10:12:25;17.20;99.90
66568;DHT22;53422;49.296;6.900;2023-05-10T10:14:50;17.30;99.90
66568;DHT22;53422;49.296;6.900;2023-05-10T10:17:17;17.40;99.90
66568;DHT22;53422;49.296;6.900;2023-05-10T10:19:43;17.30;99.90
66568;DHT22;53422;49.296;6.900;2023-05-10T10:22:10;17.40;99.90
66568;DHT22;53422;49.296;6.900;2023-05-10T10:24:38;17.30;99.90
66568;DHT22;53422;49.296;6.900;2023-05-10T10:27:33;17.40;98.90
66568;DHT22;53422;49.296;6.900;2023-05-10T10:30:28;17.50;99.50
66568;DHT22;53422;49.296;6.900;2023-05-10T10:33:01;17.50;99.20
66568;DHT22;53422;49.296;6.900;2023-05-10T10:35:33;17.50;99.90
66568;DHT22;53422;49.296;6.900;2023-05-10T10:38:00;17.50;99.90
66568;DHT22;53422;49.296;6.900;2023-05-10T10:40:30;17.50;99.90
66568;DHT22;53422;49.296;6.900;2023-05-10T10:42:57;17.50;99.90
66568;DHT22;53422;49.296;6.900;2023-05-10T10:45:24;17.50;99.00
66568;DHT22;53422;49.296;6.900;2023-05-10T10:48:23;17.40;99.60
66568;DHT22;53422;49.296;6.900;2023-05-10T10:50:57;17.50;99.90
66568;DHT22;53422;49.296;6.900;2023-05-10T10:53:28;17.50;98.40
66568;DHT22;53422;49.296;6.900;2023-05-10T10:56:08;17.60;99.90
66568;DHT22;53422;49.296;6.900;2023-05-10T10:58:35;17.50;98.30
66568;DHT22;53422;49.296;6.900;2023-05-10T11:01:17;17.50;99.30
66568;DHT22;53422;49.296;6.900;2023-05-10T11:09:10;17.40;99.50
66568;DHT22;53422;49.296;6.900;2023-05-10T11:11:48;17.50;99.90
66568;DHT22;53422;49.296;6.900;2023-05-10T11:14:20;17.40;97.70
66568;DHT22;53422;49.296;6.900;2023-05-10T11:16:46;17.30;96.00
66568;DHT22;53422;49.296;6.900;2023-05-10T11:19:13;17.30;95.60
66568;DHT22;53422;49.296;6.900;2023-05-10T11:22:12;17.40;97.00
66568;DHT22;53422;49.296;6.900;2023-05-10T11:24:38;17.40;97.70
66568;DHT22;53422;49.296;6.900;2023-05-10T11:27:05;17.40;97.10
66568;DHT22;53422;49.296;6.900;2023-05-10T11:29:32;17.40;96.20
66568;DHT22;53422;49.296;6.900;2023-05-10T11:31:58;17.50;98.30
66568;DHT22;53422;49.296;6.900;2023-05-10T11:34:29;17.60;95.70
66568;DHT22;53422;49.296;6.900;2023-05-10T11:36:56;17.70;95.30
66568;DHT22;53422;49.296;6.900;2023-05-10T11:39:27;17.80;94.00
66568;DHT22;53422;49.296;6.900;2023-05-10T11:41:54;17.80;94.90
66568;DHT22;53422;49.296;6.900;2023-05-10T11:44:19;18.00;97.30
66568;DHT22;53422;49.296;6.900;2023-05-10T11:46:45;18.00;94.20
66568;DHT22;53422;49.296;6.900;2023-05-10T11:49:11;18.20;95.40
66568;DHT22;53422;49.296;6.900;2023-05-10T11:51:38;18.20;93.30
66568;DHT22;53422;49.296;6.900;2023-05-10T11:54:09;18.30;91.60
66568;DHT22;53422;49.296;6.900;2023-05-10T11:56:39;18.30;91.10
66568;DHT22;53422;49.296;6.900;2023-05-10T11:59:05;18.30;89.70
66568;DHT22;53422;49.296;6.900;2023-05-10T12:01:32;18.40;88.50
66568;DHT22;53422;49.296;6.900;2023-05-10T12:03:58;18.40;90.90
66568;DHT22;53422;49.296;6.900;2023-05-10T12:06:32;18.40;90.10
66568;DHT22;53422;49.296;6.900;2023-05-10T12:09:06;18.50;90.40
66568;DHT22;53422;49.296;6.900;2023-05-10T12:11:37;18.50;88.00
66568;DHT22;53422;49.296;6.900;2023-05-10T12:14:04;18.60;91.40
66568;DHT22;53422;49.296;6.900;2023-05-10T12:16:30;18.60;92.40
66568;DHT22;53422;49.296;6.900;2023-05-10T12:18:57;18.80;92.40
66568;DHT22;53422;49.296;6.900;2023-05-10T12:21:24;18.70;88.70
66568;DHT22;53422;49.296;6.900;2023-05-10T12:23:51;18.70;85.90
66568;DHT22;53422;49.296;6.900;2023-05-10T12:26:17;18.70;89.40
66568;DHT22;53422;49.296;6.900;2023-05-10T12:28:43;18.80;87.90
66568;DHT22;53422;49.296;6.900;2023-05-10T12:31:09;18.80;89.00
66568;DHT22;53422;49.296;6.900;2023-05-10T12:33:41;18.90;90.40
66568;DHT22;53422;49.296;6.900;2023-05-10T12:36:08;19.00;85.50
66568;DHT22;53422;49.296;6.900;2023-05-10T12:38:36;19.00;82.80
66568;DHT22;53422;49.296;6.900;2023-05-10T12:41:08;19.00;84.60
66568;DHT22;53422;49.296;6.900;2023-05-10T12:43:34;19.10;83.50
66568;DHT22;53422;49.296;6.900;2023-05-10T12:46:12;19.20;80.30
66568;DHT22;53422;49.296;6.900;2023-05-10T12:48:40;19.20;84.30
66568;DHT22;53422;49.296;6.900;2023-05-10T12:51:06;19.30;83.80
66568;DHT22;53422;49.296;6.900;2023-05-10T12:53:38;19.20;86.90
66568;DHT22;53422;49.296;6.900;2023-05-10T12:56:04;19.30;79.60
66568;DHT22;53422;49.296;6.900;2023-05-10T12:58:30;19.40;83.30
66568;DHT22;53422;49.296;6.900;2023-05-10T13:00:56;19.50;85.00
66568;DHT22;53422;49.296;6.900;2023-05-10T13:03:22;19.60;76.10
66568;DHT22;53422;49.296;6.900;2023-05-10T13:05:48;19.70;76.70
66568;DHT22;53422;49.296;6.900;2023-05-10T13:08:13;19.80;81.30
66568;DHT22;53422;49.296;6.900;2023-05-10T13:10:39;19.90;80.90
66568;DHT22;53422;49.296;6.900;2023-05-10T13:13:05;20.00;77.50
66568;DHT22;53422;49.296;6.900;2023-05-10T13:15:31;20.00;76.60
66568;DHT22;53422;49.296;6.900;2023-05-10T13:17:57;20.10;81.70
66568;DHT22;53422;49.296;6.900;2023-05-10T13:20:23;20.20;77.50
66568;DHT22;53422;49.296;6.900;2023-05-10T13:22:48;20.30;76.80
66568;DHT22;53422;49.296;6.900;2023-05-10T13:25:14;20.30;75.20
66568;DHT22;53422;49.296;6.900;2023-05-10T13:27:40;20.30;76.90
66568;DHT22;53422;49.296;6.900;2023-05-10T13:30:07;20.30;75.50
66568;DHT22;53422;49.296;6.900;2023-05-10T13:32:33;20.40;74.30
66568;DHT22;53422;49.296;6.900;2023-05-10T13:34:59;20.30;75.00
66568;DHT22;53422;49.296;6.900;2023-05-10T13:37:24;20.40;76.70
66568;DHT22;53422;49.296;6.900;2023-05-10T13:39:50;20.40;76.50
66568;DHT22;53422;49.296;6.900;2023-05-10T13:42:15;20.40;71.30
66568;DHT22;53422;49.296;6.900;2023-05-10T13:44:41;20.40;81.70
66568;DHT22;53422;49.296;6.900;2023-05-10T13:47:07;20.50;75.50
66568;DHT22;53422;49.296;6.900;2023-05-10T13:49:32;20.40;73.90
66568;DHT22;53422;49.296;6.900;2023-05-10T13:51:59;20.40;74.60
66568;DHT22;53422;49.296;6.900;2023-05-10T13:54:31;20.50;74.50
66568;DHT22;53422;49.296;6.900;2023-05-10T13:56:57;20.40;76.40
66568;DHT22;53422;49.296;6.900;2023-05-10T13:59:22;20.40;73.10
66568;DHT22;53422;49.296;6.900;2023-05-10T14:01:48;20.40;74.40
66568;DHT22;53422;49.296;6.900;2023-05-10T14:04:14;20.40;76.80
66568;DHT22;53422;49.296;6.900;2023-05-10T14:06:40;20.40;76.30
66568;DHT22;53422;49.296;6.900;2023-05-10T14:09:05;20.40;72.90
66568;DHT22;53422;49.296;6.900;2023-05-10T14:11:31;20.40;77.30
66568;DHT22;53422;49.296;6.900;2023-05-10T14:13:57;20.30;73.80
66568;DHT22;53422;49.296;6.900;2023-05-10T14:16:22;20.40;80.10
66568;DHT22;53422;49.296;6.900;2023-05-10T14:18:48;20.30;76.50
66568;DHT22;53422;49.296;6.900;2023-05-10T14:21:13;20.30;76.40
66568;DHT22;53422;49.296;6.900;2023-05-10T14:23:39;20.30;74.70
66568;DHT22;53422;49.296;6.900;2023-05-10T14:26:05;20.30;72.30
66568;DHT22;53422;49.296;6.900;2023-05-10T14:28:31;20.30;77.10
66568;DHT22;53422;49.296;6.900;2023-05-10T14:30:58;20.30;78.40
66568;DHT22;53422;49.296;6.900;2023-05-10T14:33:24;20.30;74.80
66568;DHT22;53422;49.296;6.900;2023-05-10T14:35:50;20.40;77.40
66568;DHT22;53422;49.296;6.900;2023-05-10T14:38:16;20.30;75.80
66568;DHT22;53422;49.296;6.900;2023-05-10T14:40:42;20.30;73.80
66568;DHT22;53422;49.296;6.900;2023-05-10T14:43:08;20.10;77.90
66568;DHT22;53422;49.296;6.900;2023-05-10T14:45:34;20.00;74.60
66568;DHT22;53422;49.296;6.900;2023-05-10T14:48:00;19.90;77.70
66568;DHT22;53422;49.296;6.900;2023-05-10T14:50:26;19.80;81.00
66568;DHT22;53422;49.296;6.900;2023-05-10T14:52:53;19.70;78.60
66568;DHT22;53422;49.296;6.900;2023-05-10T14:55:18;19.70;78.90
66568;DHT22;53422;49.296;6.900;2023-05-10T14:57:44;19.50;80.30
66568;DHT22;53422;49.296;6.900;2023-05-10T15:00:12;19.50;80.90
66568;DHT22;53422;49.296;6.900;2023-05-10T15:02:37;19.50;80.50
66568;DHT22;53422;49.296;6.900;2023-05-10T15:05:03;19.40;82.50
66568;DHT22;53422;49.296;6.900;2023-05-10T15:07:29;19.40;83.60
66568;DHT22;53422;49.296;6.900;2023-05-10T15:09:56;19.30;81.70
66568;DHT22;53422;49.296;6.900;2023-05-10T15:12:22;19.30;84.40
66568;DHT22;53422;49.296;6.900;2023-05-10T15:14:47;19.30;87.10
66568;DHT22;53422;49.296;6.900;2023-05-10T15:17:13;19.30;84.80
66568;DHT22;53422;49.296;6.900;2023-05-10T15:19:39;19.30;84.60
66568;DHT22;53422;49.296;6.900;2023-05-10T15:22:05;19.40;89.40
66568;DHT22;53422;49.296;6.900;2023-05-10T15:24:31;19.30;84.90
66568;DHT22;53422;49.296;6.900;2023-05-10T15:26:56;19.30;89.60
66568;DHT22;53422;49.296;6.900;2023-05-10T15:29:22;19.30;84.60
66568;DHT22;53422;49.296;6.900;2023-05-10T15:31:49;19.30;82.30
66568;DHT22;53422;49.296;6.900;2023-05-10T15:34:15;19.30;85.40
66568;DHT22;53422;49.296;6.900;2023-05-10T15:36:41;19.40;83.10
66568;DHT22;53422;49.296;6.900;2023-05-10T15:39:06;19.50;86.50
66568;DHT22;53422;49.296;6.900;2023-05-10T15:41:32;19.50;81.80
66568;DHT22;53422;49.296;6.900;2023-05-10T15:43:58;19.50;83.90
66568;DHT22;53422;49.296;6.900;2023-05-10T15:46:27;19.50;84.20
66568;DHT22;53422;49.296;6.900;2023-05-10T15:48:54;19.50;86.00
66568;DHT22;53422;49.296;6.900;2023-05-10T15:51:19;19.50;85.60
66568;DHT22;53422;49.296;6.900;2023-05-10T15:53:45;19.50;82.80
66568;DHT22;53422;49.296;6.900;2023-05-10T15:56:11;19.50;87.30